sensor_id;sensor_type;location;lat;lon;timestamp;pressure;altitude;pressure_sealevel;temperature;humidity
6204;BME280;3135;42.602;23.468;2023-04-22T00:00:13;92252.34;;;6.45;100.00
6204;BME280;3135;42.602;23.468;2023-04-22T00:02:39;92266.13;;;6.47;100.00
6204;BME280;3135;42.602;23.468;2023-04-22T00:05:05;92252.47;;;6.25;100.00
6204;BME280;3135;42.602;23.468;2023-04-22T00:07:31;92267.34;;;6.26;100.00
6204;BME280;3135;42.602;23.468;2023-04-22T00:09:57;92255.75;;;6.06;100.00
6204;BME280;3135;42.602;23.468;2023-04-22T00:12:22;92249.44;;;5.97;100.00
6204;BME280;3135;42.602;23.468;2023-04-22T00:14:48;92239.47;;;5.74;100.00
6204;BME280;3135;42.602;23.468;2023-04-22T00:17:13;92249.47;;;5.92;100.00
6204;BME280;3135;42.602;23.468;2023-04-22T00:19:40;92244.03;;;6.18;100.00
6204;BME280;3135;42.602;23.468;2023-04-22T00:22:05;92252.06;;;6.07;100.00
6204;BME280;3135;42.602;23.468;2023-04-22T00:24:31;92250.25;;;5.93;100.00
6204;BME280;3135;42.602;23.468;2023-04-22T00:26:57;92239.34;;;6.04;100.00
6204;BME280;3135;42.602;23.468;2023-04-22T00:29:23;92235.81;;;6.14;100.00
6204;BME280;3135;42.602;23.468;2023-04-22T00:31:49;92247.22;;;6.14;100.00
6204;BME280;3135;42.602;23.468;2023-04-22T00:34:14;92224.81;;;5.86;100.00
6204;BME280;3135;42.602;23.468;2023-04-22T00:36:42;92238.88;;;5.92;100.00
6204;BME280;3135;42.602;23.468;2023-04-22T00:39:07;92223.34;;;5.65;100.00
6204;BME280;3135;42.602;23.468;2023-04-22T00:41:33;92227.31;;;5.68;100.00
6204;BME280;3135;42.602;23.468;2023-04-22T00:43:59;92222.47;;;5.80;100.00
6204;BME280;3135;42.602;23.468;2023-04-22T00:46:25;92242.28;;;6.03;100.00
6204;BME280;3135;42.602;23.468;2023-04-22T00:48:51;92230.88;;;5.97;100.00
6204;BME280;3135;42.602;23.468;2023-04-22T00:51:16;92233.53;;;6.02;100.00
6204;BME280;3135;42.602;23.468;2023-04-22T00:53:42;92258.31;;;6.27;100.00
6204;BME280;3135;42.602;23.468;2023-04-22T00:56:07;92258.81;;;6.29;100.00
6204;BME280;3135;42.602;23.468;2023-04-22T00:58:33;92251.00;;;6.08;100.00
6204;BME280;3135;42.602;23.468;2023-04-22T01:00:58;92255.75;;;6.06;100.00
6204;BME280;3135;42.602;23.468;2023-04-22T01:03:26;92267.38;;;6.15;100.00
6204;BME280;3135;42.602;23.468;2023-04-22T01:05:52;92267.41;;;6.10;100.00
6204;BME280;3135;42.602;23.468;2023-04-22T01:08:18;92267.91;;;6.18;100.00
6204;BME280;3135;42.602;23.468;2023-04-22T01:10:43;92261.59;;;6.08;100.00
6204;BME280;3135;42.602;23.468;2023-04-22T01:13:08;92263.22;;;6.04;100.00
6204;BME280;3135;42.602;23.468;2023-04-22T01:15:34;92239.16;;;5.85;100.00
6204;BME280;3135;42.602;23.468;2023-04-22T01:18:00;92262.22;;;5.85;100.00
6204;BME280;3135;42.602;23.468;2023-04-22T01:20:27;92263.13;;;5.60;100.00
6204;BME280;3135;42.602;23.468;2023-04-22T01:22:54;92263.94;;;5.60;100.00
6204;BME280;3135;42.602;23.468;2023-04-22T01:25:22;92254.88;;;5.67;100.00
6204;BME280;3135;42.602;23.468;2023-04-22T01:27:48;92261.66;;;5.88;100.00
6204;BME280;3135;42.602;23.468;2023-04-22T01:30:14;92261.47;;;5.69;100.00
6204;BME280;3135;42.602;23.468;2023-04-22T01:32:40;92258.59;;;5.66;100.00
6204;BME280;3135;42.602;23.468;2023-04-22T01:35:06;92243.88;;;5.34;100.00
6204;BME280;3135;42.602;23.468;2023-04-22T01:37:31;92239.91;;;5.36;100.00
6204;BME280;3135;42.602;23.468;2023-04-22T01:39:57;92256.56;;;5.42;100.00
6204;BME280;3135;42.602;23.468;2023-04-22T01:42:23;92251.75;;;5.54;100.00
6204;BME280;3135;42.602;23.468;2023-04-22T01:44:49;92252.34;;;5.36;100.00
6204;BME280;3135;42.602;23.468;2023-04-22T01:47:14;92248.53;;;5.62;100.00
6204;BME280;3135;42.602;23.468;2023-04-22T01:49:40;92249.66;;;5.51;100.00
6204;BME280;3135;42.602;23.468;2023-04-22T01:52:05;92243.28;;;5.52;100.00
6204;BME280;3135;42.602;23.468;2023-04-22T01:54:31;92251.81;;;5.39;100.00
6204;BME280;3135;42.602;23.468;2023-04-22T01:56:57;92240.66;;;5.47;100.00
6204;BME280;3135;42.602;23.468;2023-04-22T01:59:23;92240.03;;;5.66;100.00
6204;BME280;3135;42.602;23.468;2023-04-22T02:01:48;92250.59;;;5.76;100.00
6204;BME280;3135;42.602;23.468;2023-04-22T02:04:14;92230.06;;;5.42;100.00
6204;BME280;3135;42.602;23.468;2023-04-22T02:06:39;92235.88;;;5.44;100.00
6204;BME280;3135;42.602;23.468;2023-04-22T02:09:05;92247.31;;;5.34;100.00
6204;BME280;3135;42.602;23.468;2023-04-22T02:11:31;92251.78;;;5.44;100.00
6204;BME280;3135;42.602;23.468;2023-04-22T02:13:56;92244.84;;;5.58;100.00
6204;BME280;3135;42.602;23.468;2023-04-22T02:16:22;92245.56;;;5.79;100.00
6204;BME280;3135;42.602;23.468;2023-04-22T02:18:47;92255.34;;;5.84;100.00
6204;BME280;3135;42.602;23.468;2023-04-22T02:21:13;92252.50;;;5.70;100.00
6204;BME280;3135;42.602;23.468;2023-04-22T02:23:38;92248.44;;;5.78;100.00
6204;BME280;3135;42.602;23.468;2023-04-22T02:26:04;92246.91;;;5.72;100.00
6204;BME280;3135;42.602;23.468;2023-04-22T02:28:30;92244.00;;;5.68;100.00
6204;BME280;3135;42.602;23.468;2023-04-22T02:30:56;92239.50;;;5.63;100.00
6204;BME280;3135;42.602;23.468;2023-04-22T02:33:21;92248.25;;;5.64;100.00
6204;BME280;3135;42.602;23.468;2023-04-22T02:35:47;92249.03;;;5.64;100.00
6204;BME280;3135;42.602;23.468;2023-04-22T02:38:12;92258.38;;;5.57;100.00
6204;BME280;3135;42.602;23.468;2023-04-22T02:40:38;92256.22;;;5.59;100.00
6204;BME280;3135;42.602;23.468;2023-04-22T02:43:03;92250.13;;;5.63;100.00
6204;BME280;3135;42.602;23.468;2023-04-22T02:45:29;92257.72;;;5.80;100.00
6204;BME280;3135;42.602;23.468;2023-04-22T02:47:54;92255.16;;;5.65;100.00
6204;BME280;3135;42.602;23.468;2023-04-22T02:50:20;92254.38;;;5.59;100.00
6204;BME280;3135;42.602;23.468;2023-04-22T02:52:45;92249.41;;;5.48;100.00
6204;BME280;3135;42.602;23.468;2023-04-22T02:55:11;92252.81;;;5.53;100.00
6204;BME280;3135;42.602;23.468;2023-04-22T02:57:36;92262.78;;;5.77;100.00
6204;BME280;3135;42.602;23.468;2023-04-22T03:00:02;92261.16;;;5.86;100.00
6204;BME280;3135;42.602;23.468;2023-04-22T03:02:28;92258.06;;;5.63;100.00
6204;BME280;3135;42.602;23.468;2023-04-22T03:04:54;92262.84;;;5.61;100.00
6204;BME280;3135;42.602;23.468;2023-04-22T03:07:20;92251.22;;;5.52;100.00
6204;BME280;3135;42.602;23.468;2023-04-22T03:09:45;92254.38;;;5.54;100.00
6204;BME280;3135;42.602;23.468;2023-04-22T03:12:10;92261.78;;;5.62;100.00
6204;BME280;3135;42.602;23.468;2023-04-22T03:14:36;92278.16;;;5.80;100.00
6204;BME280;3135;42.602;23.468;2023-04-22T03:17:01;92274.44;;;5.81;100.00
6204;BME280;3135;42.602;23.468;2023-04-22T03:19:27;92269.72;;;5.68;100.00
6204;BME280;3135;42.602;23.468;2023-04-22T03:21:52;92269.75;;;5.62;100.00
6204;BME280;3135;42.602;23.468;2023-04-22T03:24:18;92266.13;;;5.33;100.00
6204;BME280;3135;42.602;23.468;2023-04-22T03:26:43;92260.03;;;5.37;100.00
6204;BME280;3135;42.602;23.468;2023-04-22T03:29:09;92283.13;;;5.17;100.00
6204;BME280;3135;42.602;23.468;2023-04-22T03:31:34;92284.72;;;5.02;100.00
6204;BME280;3135;42.602;23.468;2023-04-22T03:33:59;92294.25;;;5.19;100.00
6204;BME280;3135;42.602;23.468;2023-04-22T03:36:26;92284.16;;;5.26;100.00
6204;BME280;3135;42.602;23.468;2023-04-22T03:38:52;92280.47;;;5.17;100.00
6204;BME280;3135;42.602;23.468;2023-04-22T03:41:17;92288.72;;;5.05;100.00
6204;BME280;3135;42.602;23.468;2023-04-22T03:43:43;92275.22;;;4.96;100.00
6204;BME280;3135;42.602;23.468;2023-04-22T03:46:08;92285.53;;;5.03;100.00
6204;BME280;3135;42.602;23.468;2023-04-22T03:48:35;92294.78;;;5.10;100.00
6204;BME280;3135;42.602;23.468;2023-04-22T03:51:01;92294.84;;;4.80;100.00
6204;BME280;3135;42.602;23.468;2023-04-22T03:53:27;92292.44;;;4.83;100.00
6204;BME280;3135;42.602;23.468;2023-04-22T03:55:53;92287.16;;;4.73;100.00
6204;BME280;3135;42.602;23.468;2023-04-22T03:58:18;92294.28;;;4.78;100.00
6204;BME280;3135;42.602;23.468;2023-04-22T04:00:44;92296.16;;;4.82;100.00
6204;BME280;3135;42.602;23.468;2023-04-22T04:03:09;92304.34;;;4.86;100.00
6204;BME280;3135;42.602;23.468;2023-04-22T04:05:35;92301.66;;;5.11;100.00
6204;BME280;3135;42.602;23.468;2023-04-22T04:08:01;92309.63;;;5.06;100.00
6204;BME280;3135;42.602;23.468;2023-04-22T04:10:27;92296.13;;;4.93;100.00
6204;BME280;3135;42.602;23.468;2023-04-22T04:12:52;92288.44;;;5.06;100.00
6204;BME280;3135;42.602;23.468;2023-04-22T04:15:17;92302.16;;;5.34;100.00
6204;BME280;3135;42.602;23.468;2023-04-22T04:17:43;92278.84;;;5.26;100.00
6204;BME280;3135;42.602;23.468;2023-04-22T04:20:10;92279.38;;;5.33;100.00
6204;BME280;3135;42.602;23.468;2023-04-22T04:22:36;92304.22;;;5.57;100.00
6204;BME280;3135;42.602;23.468;2023-04-22T04:25:02;92285.13;;;5.60;100.00
6204;BME280;3135;42.602;23.468;2023-04-22T04:27:27;92295.34;;;5.82;100.00
6204;BME280;3135;42.602;23.468;2023-04-22T04:29:53;92296.66;;;5.95;100.00
6204;BME280;3135;42.602;23.468;2023-04-22T04:32:20;92296.94;;;5.94;100.00
6204;BME280;3135;42.602;23.468;2023-04-22T04:34:46;92301.94;;;6.00;100.00
6204;BME280;3135;42.602;23.468;2023-04-22T04:37:11;92305.94;;;5.98;100.00
6204;BME280;3135;42.602;23.468;2023-04-22T04:39:37;92326.38;;;5.82;100.00
6204;BME280;3135;42.602;23.468;2023-04-22T04:42:02;92299.31;;;5.95;100.00
6204;BME280;3135;42.602;23.468;2023-04-22T04:44:28;92319.66;;;6.10;100.00
6204;BME280;3135;42.602;23.468;2023-04-22T04:46:56;92333.09;;;6.29;100.00
6204;BME280;3135;42.602;23.468;2023-04-22T04:49:22;92344.00;;;6.27;100.00
6204;BME280;3135;42.602;23.468;2023-04-22T04:51:48;92326.28;;;6.18;100.00
6204;BME280;3135;42.602;23.468;2023-04-22T04:54:14;92318.94;;;5.99;100.00
6204;BME280;3135;42.602;23.468;2023-04-22T04:56:39;92345.88;;;6.27;100.00
6204;BME280;3135;42.602;23.468;2023-04-22T04:59:05;92345.03;;;6.31;100.00
6204;BME280;3135;42.602;23.468;2023-04-22T05:01:30;92347.91;;;6.35;100.00
6204;BME280;3135;42.602;23.468;2023-04-22T05:03:56;92361.13;;;6.50;100.00
6204;BME280;3135;42.602;23.468;2023-04-22T05:06:21;92354.47;;;6.53;100.00
6204;BME280;3135;42.602;23.468;2023-04-22T05:08:47;92359.03;;;6.42;100.00
6204;BME280;3135;42.602;23.468;2023-04-22T05:11:12;92349.19;;;6.48;100.00
6204;BME280;3135;42.602;23.468;2023-04-22T05:13:37;92336.81;;;6.28;100.00
6204;BME280;3135;42.602;23.468;2023-04-22T05:16:03;92344.75;;;6.33;100.00
6204;BME280;3135;42.602;23.468;2023-04-22T05:18:28;92336.44;;;6.50;100.00
6204;BME280;3135;42.602;23.468;2023-04-22T05:20:54;92349.56;;;6.70;100.00
6204;BME280;3135;42.602;23.468;2023-04-22T05:23:23;92349.91;;;6.63;100.00
6204;BME280;3135;42.602;23.468;2023-04-22T05:25:48;92363.06;;;6.79;100.00
6204;BME280;3135;42.602;23.468;2023-04-22T05:28:14;92366.13;;;6.96;100.00
6204;BME280;3135;42.602;23.468;2023-04-22T05:30:39;92356.97;;;7.12;100.00
6204;BME280;3135;42.602;23.468;2023-04-22T05:33:04;92350.19;;;6.96;100.00
6204;BME280;3135;42.602;23.468;2023-04-22T05:35:30;92352.44;;;6.79;100.00
6204;BME280;3135;42.602;23.468;2023-04-22T05:37:56;92357.94;;;6.93;100.00
6204;BME280;3135;42.602;23.468;2023-04-22T05:40:21;92362.94;;;6.94;100.00
6204;BME280;3135;42.602;23.468;2023-04-22T05:42:46;92365.19;;;7.16;100.00
6204;BME280;3135;42.602;23.468;2023-04-22T05:45:12;92358.94;;;7.31;100.00
6204;BME280;3135;42.602;23.468;2023-04-22T05:47:37;92366.22;;;7.49;100.00
6204;BME280;3135;42.602;23.468;2023-04-22T05:50:03;92362.44;;;7.55;100.00
6204;BME280;3135;42.602;23.468;2023-04-22T05:52:29;92351.56;;;7.52;100.00
6204;BME280;3135;42.602;23.468;2023-04-22T05:54:54;92359.63;;;7.71;100.00
6204;BME280;3135;42.602;23.468;2023-04-22T05:57:20;92358.88;;;7.65;100.00
6204;BME280;3135;42.602;23.468;2023-04-22T05:59:45;92335.63;;;7.76;100.00
6204;BME280;3135;42.602;23.468;2023-04-22T06:02:10;92345.69;;;8.03;100.00
6204;BME280;3135;42.602;23.468;2023-04-22T06:04:36;92357.25;;;8.17;100.00
6204;BME280;3135;42.602;23.468;2023-04-22T06:07:01;92353.16;;;8.25;100.00
6204;BME280;3135;42.602;23.468;2023-04-22T06:09:27;92349.91;;;8.28;100.00
6204;BME280;3135;42.602;23.468;2023-04-22T06:11:52;92349.41;;;8.26;100.00
6204;BME280;3135;42.602;23.468;2023-04-22T06:14:17;92358.31;;;8.40;100.00
6204;BME280;3135;42.602;23.468;2023-04-22T06:16:43;92352.72;;;8.60;100.00
6204;BME280;3135;42.602;23.468;2023-04-22T06:19:08;92341.13;;;8.51;100.00
6204;BME280;3135;42.602;23.468;2023-04-22T06:21:34;92351.50;;;8.53;100.00
6204;BME280;3135;42.602;23.468;2023-04-22T06:24:01;92350.81;;;8.42;100.00
6204;BME280;3135;42.602;23.468;2023-04-22T06:26:29;92376.91;;;8.83;100.00
6204;BME280;3135;42.602;23.468;2023-04-22T06:28:55;92366.03;;;8.79;100.00
6204;BME280;3135;42.602;23.468;2023-04-22T06:31:20;92360.38;;;8.86;100.00
6204;BME280;3135;42.602;23.468;2023-04-22T06:33:45;92375.69;;;9.13;100.00
6204;BME280;3135;42.602;23.468;2023-04-22T06:36:12;92381.81;;;8.94;100.00
6204;BME280;3135;42.602;23.468;2023-04-22T06:38:37;92378.72;;;8.87;100.00
6204;BME280;3135;42.602;23.468;2023-04-22T06:41:03;92392.59;;;9.03;100.00
6204;BME280;3135;42.602;23.468;2023-04-22T06:43:28;92387.94;;;9.14;100.00
6204;BME280;3135;42.602;23.468;2023-04-22T06:45:54;92396.91;;;9.37;100.00
6204;BME280;3135;42.602;23.468;2023-04-22T06:48:19;92394.72;;;9.39;100.00
6204;BME280;3135;42.602;23.468;2023-04-22T06:50:45;92392.16;;;9.66;100.00
6204;BME280;3135;42.602;23.468;2023-04-22T06:53:10;92377.03;;;9.62;100.00
6204;BME280;3135;42.602;23.468;2023-04-22T06:55:36;92396.31;;;9.72;100.00
6204;BME280;3135;42.602;23.468;2023-04-22T06:58:01;92400.25;;;9.61;100.00
6204;BME280;3135;42.602;23.468;2023-04-22T07:00:27;92391.97;;;9.77;100.00
6204;BME280;3135;42.602;23.468;2023-04-22T07:02:53;92375.50;;;9.88;100.00
6204;BME280;3135;42.602;23.468;2023-04-22T07:05:19;92385.88;;;9.90;100.00
6204;BME280;3135;42.602;23.468;2023-04-22T07:07:45;92381.88;;;10.34;100.00
6204;BME280;3135;42.602;23.468;2023-04-22T07:10:11;92390.06;;;10.51;100.00
6204;BME280;3135;42.602;23.468;2023-04-22T07:12:38;92386.16;;;10.85;100.00
6204;BME280;3135;42.602;23.468;2023-04-22T07:15:04;92380.78;;;10.98;100.00
6204;BME280;3135;42.602;23.468;2023-04-22T07:17:30;92383.34;;;11.04;100.00
6204;BME280;3135;42.602;23.468;2023-04-22T07:19:55;92383.38;;;11.26;100.00
6204;BME280;3135;42.602;23.468;2023-04-22T07:22:21;92391.41;;;11.26;100.00
6204;BME280;3135;42.602;23.468;2023-04-22T07:24:46;92384.31;;;11.44;100.00
6204;BME280;3135;42.602;23.468;2023-04-22T07:27:12;92394.38;;;11.47;100.00
6204;BME280;3135;42.602;23.468;2023-04-22T07:29:37;92398.81;;;11.51;100.00
6204;BME280;3135;42.602;23.468;2023-04-22T07:32:03;92406.53;;;11.98;100.00
6204;BME280;3135;42.602;23.468;2023-04-22T07:34:28;92397.91;;;12.01;100.00
6204;BME280;3135;42.602;23.468;2023-04-22T07:36:54;92409.59;;;12.05;100.00
6204;BME280;3135;42.602;23.468;2023-04-22T07:39:19;92413.63;;;12.25;100.00
6204;BME280;3135;42.602;23.468;2023-04-22T07:41:45;92406.69;;;12.33;100.00
6204;BME280;3135;42.602;23.468;2023-04-22T07:44:10;92412.03;;;12.64;100.00
6204;BME280;3135;42.602;23.468;2023-04-22T07:46:40;92423.09;;;12.31;100.00
6204;BME280;3135;42.602;23.468;2023-04-22T07:49:06;92416.88;;;12.53;100.00
6204;BME280;3135;42.602;23.468;2023-04-22T07:51:31;92405.59;;;12.73;100.00
6204;BME280;3135;42.602;23.468;2023-04-22T07:53:57;92414.94;;;12.85;100.00
6204;BME280;3135;42.602;23.468;2023-04-22T07:56:22;92403.78;;;13.09;100.00
6204;BME280;3135;42.602;23.468;2023-04-22T07:58:48;92416.44;;;13.25;100.00
6204;BME280;3135;42.602;23.468;2023-04-22T08:01:13;92407.41;;;13.13;99.10
6204;BME280;3135;42.602;23.468;2023-04-22T08:03:38;92409.81;;;13.32;100.00
6204;BME280;3135;42.602;23.468;2023-04-22T08:06:04;92417.69;;;13.80;95.12
6204;BME280;3135;42.602;23.468;2023-04-22T08:08:29;92408.53;;;13.81;93.82
6204;BME280;3135;42.602;23.468;2023-04-22T08:10:55;92402.19;;;14.03;91.24
6204;BME280;3135;42.602;23.468;2023-04-22T08:13:20;92415.94;;;13.93;90.90
6204;BME280;3135;42.602;23.468;2023-04-22T08:15:46;92413.56;;;14.00;90.27
6204;BME280;3135;42.602;23.468;2023-04-22T08:18:11;92408.19;;;13.91;92.65
6204;BME280;3135;42.602;23.468;2023-04-22T08:20:36;92413.28;;;13.75;89.44
6204;BME280;3135;42.602;23.468;2023-04-22T08:23:02;92414.34;;;13.83;91.57
6204;BME280;3135;42.602;23.468;2023-04-22T08:25:27;92404.69;;;14.08;91.23
6204;BME280;3135;42.602;23.468;2023-04-22T08:27:53;92408.91;;;14.35;91.83
6204;BME280;3135;42.602;23.468;2023-04-22T08:30:19;92404.97;;;14.71;86.93
6204;BME280;3135;42.602;23.468;2023-04-22T08:32:44;92416.31;;;14.76;86.37
6204;BME280;3135;42.602;23.468;2023-04-22T08:35:10;92406.25;;;14.73;85.48
6204;BME280;3135;42.602;23.468;2023-04-22T08:37:36;92397.78;;;14.54;87.37
6204;BME280;3135;42.602;23.468;2023-04-22T08:40:02;92384.75;;;14.18;91.44
6204;BME280;3135;42.602;23.468;2023-04-22T08:42:28;92387.47;;;14.56;88.15
6204;BME280;3135;42.602;23.468;2023-04-22T08:44:54;92391.09;;;14.60;87.07
6204;BME280;3135;42.602;23.468;2023-04-22T08:47:20;92392.13;;;14.76;86.08
6204;BME280;3135;42.602;23.468;2023-04-22T08:49:46;92397.94;;;14.87;86.76
6204;BME280;3135;42.602;23.468;2023-04-22T08:52:11;92390.47;;;14.93;85.55
6204;BME280;3135;42.602;23.468;2023-04-22T08:54:40;92384.34;;;14.54;85.70
6204;BME280;3135;42.602;23.468;2023-04-22T08:57:06;92389.81;;;14.66;86.46
6204;BME280;3135;42.602;23.468;2023-04-22T08:59:33;92385.22;;;14.96;86.46
6204;BME280;3135;42.602;23.468;2023-04-22T09:01:58;92377.38;;;15.54;85.28
6204;BME280;3135;42.602;23.468;2023-04-22T09:04:24;92375.09;;;15.98;84.28
6204;BME280;3135;42.602;23.468;2023-04-22T09:06:50;92376.06;;;15.81;81.35
6204;BME280;3135;42.602;23.468;2023-04-22T09:09:15;92378.34;;;15.91;79.09
6204;BME280;3135;42.602;23.468;2023-04-22T09:11:41;92368.19;;;16.21;81.41
6204;BME280;3135;42.602;23.468;2023-04-22T09:14:07;92375.25;;;16.26;77.54
6204;BME280;3135;42.602;23.468;2023-04-22T09:16:33;92374.91;;;16.27;78.17
6204;BME280;3135;42.602;23.468;2023-04-22T09:19:05;92371.63;;;16.92;74.03
6204;BME280;3135;42.602;23.468;2023-04-22T09:21:35;92366.13;;;16.76;75.07
6204;BME280;3135;42.602;23.468;2023-04-22T09:24:01;92372.72;;;17.15;73.23
6204;BME280;3135;42.602;23.468;2023-04-22T09:26:27;92365.44;;;16.91;72.04
6204;BME280;3135;42.602;23.468;2023-04-22T09:28:54;92361.53;;;16.76;73.77
6204;BME280;3135;42.602;23.468;2023-04-22T09:31:22;92359.47;;;16.61;74.18
6204;BME280;3135;42.602;23.468;2023-04-22T09:33:51;92364.44;;;16.96;73.15
6204;BME280;3135;42.602;23.468;2023-04-22T09:36:29;92341.59;;;17.05;73.31
6204;BME280;3135;42.602;23.468;2023-04-22T09:38:58;92362.34;;;17.42;73.73
6204;BME280;3135;42.602;23.468;2023-04-22T09:41:32;92354.41;;;17.61;73.33
6204;BME280;3135;42.602;23.468;2023-04-22T09:44:00;92361.22;;;17.43;70.28
6204;BME280;3135;42.602;23.468;2023-04-22T09:46:27;92357.34;;;16.91;71.65
6204;BME280;3135;42.602;23.468;2023-04-22T09:48:58;92350.28;;;16.86;71.82
6204;BME280;3135;42.602;23.468;2023-04-22T09:51:24;92359.25;;;16.78;73.59
6204;BME280;3135;42.602;23.468;2023-04-22T09:54:03;92350.38;;;16.90;71.78
6204;BME280;3135;42.602;23.468;2023-04-22T09:56:50;92353.19;;;16.81;70.49
6204;BME280;3135;42.602;23.468;2023-04-22T09:59:42;92361.94;;;16.66;71.26
6204;BME280;3135;42.602;23.468;2023-04-22T10:02:08;92355.44;;;16.67;68.96
6204;BME280;3135;42.602;23.468;2023-04-22T10:04:34;92348.66;;;17.10;68.31
6204;BME280;3135;42.602;23.468;2023-04-22T10:06:59;92363.78;;;17.39;70.89
6204;BME280;3135;42.602;23.468;2023-04-22T10:09:27;92362.50;;;16.59;73.63
6204;BME280;3135;42.602;23.468;2023-04-22T10:11:55;92346.31;;;15.90;76.16
6204;BME280;3135;42.602;23.468;2023-04-22T10:14:24;92356.25;;;15.56;79.09
6204;BME280;3135;42.602;23.468;2023-04-22T10:16:58;92345.06;;;15.12;81.04
6204;BME280;3135;42.602;23.468;2023-04-22T10:19:24;92360.28;;;15.71;80.40
6204;BME280;3135;42.602;23.468;2023-04-22T10:21:56;92356.75;;;15.58;76.99
6204;BME280;3135;42.602;23.468;2023-04-22T10:24:25;92349.03;;;15.48;75.83
6204;BME280;3135;42.602;23.468;2023-04-22T10:29:18;92362.72;;;15.22;73.84
6204;BME280;3135;42.602;23.468;2023-04-22T10:34:35;92368.56;;;15.66;69.08
6204;BME280;3135;42.602;23.468;2023-04-22T10:37:05;92369.69;;;15.98;68.84
6204;BME280;3135;42.602;23.468;2023-04-22T10:39:30;92356.59;;;16.21;70.00
6204;BME280;3135;42.602;23.468;2023-04-22T10:44:50;92366.66;;;17.06;71.66
6204;BME280;3135;42.602;23.468;2023-04-22T10:47:30;92368.06;;;16.75;69.81
6204;BME280;3135;42.602;23.468;2023-04-22T10:50:25;92364.56;;;16.05;74.01
6204;BME280;3135;42.602;23.468;2023-04-22T10:52:55;92360.56;;;16.35;70.93
6204;BME280;3135;42.602;23.468;2023-04-22T10:55:22;92364.66;;;16.08;68.16
6204;BME280;3135;42.602;23.468;2023-04-22T10:57:49;92337.59;;;16.05;68.87
6204;BME280;3135;42.602;23.468;2023-04-22T11:00:20;92355.47;;;16.09;67.46
6204;BME280;3135;42.602;23.468;2023-04-22T11:02:52;92345.09;;;15.87;68.87
6204;BME280;3135;42.602;23.468;2023-04-22T11:05:23;92355.94;;;16.36;67.92
6204;BME280;3135;42.602;23.468;2023-04-22T11:07:50;92351.81;;;16.63;67.39
6204;BME280;3135;42.602;23.468;2023-04-22T11:10:36;92359.81;;;16.47;66.30
6204;BME280;3135;42.602;23.468;2023-04-22T11:13:09;92354.66;;;16.09;66.41
6204;BME280;3135;42.602;23.468;2023-04-22T11:15:37;92353.72;;;16.38;67.05
6204;BME280;3135;42.602;23.468;2023-04-22T11:18:02;92345.25;;;16.15;68.20
6204;BME280;3135;42.602;23.468;2023-04-22T11:20:31;92354.53;;;16.63;67.18
6204;BME280;3135;42.602;23.468;2023-04-22T11:22:57;92343.38;;;16.65;66.68
6204;BME280;3135;42.602;23.468;2023-04-22T11:25:24;92358.34;;;16.74;65.50
6204;BME280;3135;42.602;23.468;2023-04-22T11:27:51;92356.97;;;16.19;67.20
6204;BME280;3135;42.602;23.468;2023-04-22T11:30:21;92350.88;;;16.10;67.06
6204;BME280;3135;42.602;23.468;2023-04-22T11:32:49;92357.03;;;16.10;69.60
6204;BME280;3135;42.602;23.468;2023-04-22T11:35:23;92358.66;;;15.57;69.72
6204;BME280;3135;42.602;23.468;2023-04-22T11:37:51;92350.94;;;15.47;69.78
6204;BME280;3135;42.602;23.468;2023-04-22T11:40:18;92360.91;;;15.89;69.12
6204;BME280;3135;42.602;23.468;2023-04-22T11:42:44;92362.25;;;15.82;67.76
6204;BME280;3135;42.602;23.468;2023-04-22T11:45:10;92349.13;;;15.93;66.14
6204;BME280;3135;42.602;23.468;2023-04-22T11:47:38;92371.25;;;15.99;68.91
6204;BME280;3135;42.602;23.468;2023-04-22T11:52:59;92374.09;;;15.48;68.08
6204;BME280;3135;42.602;23.468;2023-04-22T11:55:33;92350.81;;;15.86;66.51
6204;BME280;3135;42.602;23.468;2023-04-22T12:00:31;92360.56;;;16.23;65.66
6204;BME280;3135;42.602;23.468;2023-04-22T12:03:06;92368.78;;;16.39;64.26
6204;BME280;3135;42.602;23.468;2023-04-22T12:05:39;92364.06;;;16.60;65.21
6204;BME280;3135;42.602;23.468;2023-04-22T12:08:34;92361.72;;;16.59;63.65
6204;BME280;3135;42.602;23.468;2023-04-22T12:11:03;92374.75;;;16.57;63.33
6204;BME280;3135;42.602;23.468;2023-04-22T12:16:09;92356.66;;;16.57;62.62
6204;BME280;3135;42.602;23.468;2023-04-22T12:18:38;92371.91;;;16.41;62.74
6204;BME280;3135;42.602;23.468;2023-04-22T12:21:11;92366.56;;;16.66;64.11
6204;BME280;3135;42.602;23.468;2023-04-22T12:26:07;92364.19;;;17.13;65.58
6204;BME280;3135;42.602;23.468;2023-04-22T12:28:33;92360.59;;;16.97;63.39
6204;BME280;3135;42.602;23.468;2023-04-22T12:30:58;92337.91;;;16.73;61.41
6204;BME280;3135;42.602;23.468;2023-04-22T12:33:24;92359.47;;;16.61;62.24
6204;BME280;3135;42.602;23.468;2023-04-22T12:35:50;92372.81;;;16.45;61.85
6204;BME280;3135;42.602;23.468;2023-04-22T12:38:17;92366.66;;;16.57;63.46
6204;BME280;3135;42.602;23.468;2023-04-22T12:40:42;92365.69;;;16.86;65.83
6204;BME280;3135;42.602;23.468;2023-04-22T12:43:08;92346.88;;;17.02;62.46
6204;BME280;3135;42.602;23.468;2023-04-22T12:45:33;92360.72;;;17.13;64.70
6204;BME280;3135;42.602;23.468;2023-04-22T12:47:59;92355.03;;;17.30;62.01
6204;BME280;3135;42.602;23.468;2023-04-22T12:50:24;92344.28;;;17.18;63.33
6204;BME280;3135;42.602;23.468;2023-04-22T12:52:50;92345.97;;;17.22;62.64
6204;BME280;3135;42.602;23.468;2023-04-22T12:55:16;92346.63;;;17.07;64.97
6204;BME280;3135;42.602;23.468;2023-04-22T12:57:43;92350.44;;;16.32;70.61
6204;BME280;3135;42.602;23.468;2023-04-22T13:00:09;92352.94;;;16.50;70.51
6204;BME280;3135;42.602;23.468;2023-04-22T13:02:42;92346.63;;;16.46;72.24
6204;BME280;3135;42.602;23.468;2023-04-22T13:05:08;92340.25;;;16.87;73.74
6204;BME280;3135;42.602;23.468;2023-04-22T13:07:34;92339.69;;;17.06;71.54
6204;BME280;3135;42.602;23.468;2023-04-22T13:10:00;92355.44;;;17.04;71.69
6204;BME280;3135;42.602;23.468;2023-04-22T13:12:26;92352.16;;;16.98;72.42
6204;BME280;3135;42.602;23.468;2023-04-22T13:14:51;92353.41;;;17.01;70.98
6204;BME280;3135;42.602;23.468;2023-04-22T13:17:16;92356.53;;;17.27;70.40
6204;BME280;3135;42.602;23.468;2023-04-22T13:19:42;92350.13;;;17.20;68.38
6204;BME280;3135;42.602;23.468;2023-04-22T13:22:07;92348.44;;;17.03;69.92
6204;BME280;3135;42.602;23.468;2023-04-22T13:24:33;92335.88;;;16.95;70.05